Time;durP1;ratioP1;P1;durP2;ratioP2;P2;SDS_P1;SDS_P2;PMS_P1;PMS_P2;Temp;Humidity;BMP_temperature;BMP_pressure;BME280_temperature;BME280_humidity;BME280_pressure;Samples;Min_cycle;Max_cycle;Signal;HPM_P1;HPM_P2
2023/09/22 00:01:07;;;;;;;56.08;30.65;;;14.30;99.90;;;;;;7378799;19;20014;-67
2023/09/22 00:03:55;;;;;;;70.18;32.38;;;14.40;99.90;;;;;;7376671;19;20022;-67
2023/09/22 00:06:22;;;;;;;58.67;30.58;;;14.40;99.90;;;;;;7378382;19;20014;-59
2023/09/22 00:09:08;;;;;;;59.90;31.88;;;14.40;99.90;;;;;;7377174;19;20030;-59
2023/09/22 00:11:36;;;;;;;61.58;30.15;;;14.40;99.90;;;;;;7376056;19;20493;-59
2023/09/22 00:14:03;;;;;;;63.88;32.13;;;14.50;99.90;;;;;;7374654;19;20078;-58
2023/09/22 00:16:34;;;;;;;58.92;30.05;;;14.40;99.90;;;;;;7377169;19;20094;-59
2023/09/22 00:19:20;;;;;;;50.15;29.40;;;14.50;99.90;;;;;;7376046;19;20034;-59
2023/09/22 00:21:46;;;;;;;48.08;28.15;;;14.50;99.90;;;;;;7377773;19;20343;-67
2023/09/22 00:24:14;;;;;;;59.88;31.45;;;14.50;99.90;;;;;;7376703;19;20018;-59
2023/09/22 00:26:40;;;;;;;44.35;28.88;;;14.50;99.90;;;;;;7374145;19;20014;-59
2023/09/22 00:29:06;;;;;;;51.60;29.55;;;14.50;99.90;;;;;;7374202;19;20033;-59
2023/09/22 00:31:53;;;;;;;53.10;30.38;;;14.50;99.90;;;;;;7373648;19;20313;-66
2023/09/22 00:34:19;;;;;;;55.20;30.92;;;14.50;99.90;;;;;;7377185;19;20031;-66
2023/09/22 00:37:05;;;;;;;42.28;29.02;;;14.50;99.90;;;;;;7375808;19;20837;-66
2023/09/22 00:39:33;;;;;;;44.85;28.67;;;14.50;99.90;;;;;;7368842;19;20022;-59
2023/09/22 00:42:01;;;;;;;41.83;27.42;;;14.50;99.90;;;;;;7379179;19;20559;-59
2023/09/22 00:44:48;;;;;;;39.22;27.02;;;14.50;99.90;;;;;;7375194;19;20014;-59
2023/09/22 00:47:15;;;;;;;38.22;26.88;;;14.50;99.90;;;;;;7376252;19;20480;-59
2023/09/22 00:49:43;;;;;;;41.90;28.73;;;14.50;99.90;;;;;;7369052;19;20011;-59
2023/09/22 00:52:30;;;;;;;41.88;28.58;;;14.50;99.90;;;;;;7373699;19;20318;-58
2023/09/22 00:55:17;;;;;;;43.13;29.38;;;14.50;99.90;;;;;;7377225;19;20126;-57
2023/09/22 00:57:43;;;;;;;41.42;27.98;;;14.50;99.90;;;;;;7370053;19;20188;-58
2023/09/22 01:00:10;;;;;;;44.13;29.45;;;14.50;99.90;;;;;;7376553;19;20014;-58
2023/09/22 01:02:37;;;;;;;41.22;28.60;;;14.50;99.90;;;;;;7371711;19;20025;-58
2023/09/22 01:05:04;;;;;;;37.40;27.95;;;14.50;99.90;;;;;;7374888;19;20485;-59
2023/09/22 01:07:31;;;;;;;35.47;26.40;;;14.50;99.90;;;;;;7373076;19;20109;-59
2023/09/22 01:10:07;;;;;;;36.55;27.23;;;14.50;99.90;;;;;;7376097;19;20363;-59
2023/09/22 01:12:33;;;;;;;34.72;26.50;;;14.60;99.90;;;;;;7369836;19;20014;-58
2023/09/22 01:15:00;;;;;;;43.15;28.08;;;14.50;99.90;;;;;;7374154;19;20034;-59
2023/09/22 01:17:47;;;;;;;38.30;27.88;;;14.50;99.90;;;;;;7372693;19;20081;-59
2023/09/22 01:20:13;;;;;;;42.15;27.55;;;14.50;99.90;;;;;;7374680;19;20014;-58
2023/09/22 01:22:40;;;;;;;39.13;27.52;;;14.50;99.90;;;;;;7375197;19;20364;-58
2023/09/22 01:25:07;;;;;;;41.65;27.52;;;14.50;99.90;;;;;;7374280;19;20018;-58
2023/09/22 01:27:53;;;;;;;40.35;27.35;;;14.50;99.90;;;;;;7371363;19;20790;-59
2023/09/22 01:30:22;;;;;;;38.33;28.30;;;14.50;99.90;;;;;;7372093;19;20025;-58
2023/09/22 01:32:48;;;;;;;41.10;29.38;;;14.50;99.90;;;;;;7372833;19;20124;-58
2023/09/22 01:35:14;;;;;;;39.03;27.63;;;14.50;99.90;;;;;;7375145;19;20006;-59
2023/09/22 01:37:50;;;;;;;35.97;27.63;;;14.50;99.90;;;;;;7371212;19;20014;-59
2023/09/22 01:40:17;;;;;;;40.55;27.75;;;14.50;99.90;;;;;;7374548;19;20025;-59
2023/09/22 01:42:45;;;;;;;40.33;29.00;;;14.50;99.90;;;;;;7375123;19;20436;-59
2023/09/22 01:45:31;;;;;;;35.80;28.23;;;14.50;99.90;;;;;;7372901;19;20014;-59
2023/09/22 01:47:57;;;;;;;39.50;29.13;;;14.50;99.90;;;;;;7374173;19;20074;-59
2023/09/22 01:50:23;;;;;;;38.95;28.88;;;14.50;99.90;;;;;;7373776;19;20386;-58
2023/09/22 01:52:50;;;;;;;37.70;28.35;;;14.50;99.90;;;;;;7375062;19;20660;-58
2023/09/22 01:55:16;;;;;;;43.40;29.60;;;14.50;99.90;;;;;;7374298;19;20010;-67
2023/09/22 01:57:43;;;;;;;42.92;29.85;;;14.50;99.90;;;;;;7372398;19;20018;-67
2023/09/22 02:00:10;;;;;;;36.17;29.48;;;14.50;99.90;;;;;;7374910;19;20022;-67
2023/09/22 02:02:43;;;;;;;34.72;27.80;;;14.50;99.90;;;;;;7372283;19;20057;-59
2023/09/22 02:05:11;;;;;;;35.08;26.40;;;14.40;99.90;;;;;;7373809;19;20442;-68
2023/09/22 02:07:38;;;;;;;35.80;27.08;;;14.30;99.90;;;;;;7365137;19;20427;-68
2023/09/22 02:10:05;;;;;;;29.58;24.85;;;14.20;99.90;;;;;;7370339;19;20413;-68
2023/09/22 02:12:52;;;;;;;31.90;25.60;;;14.10;99.90;;;;;;7369770;19;20019;-67
2023/09/22 02:15:18;;;;;;;34.80;26.90;;;14.10;99.90;;;;;;7372614;19;20053;-68
2023/09/22 02:17:46;;;;;;;30.85;26.20;;;14.10;99.90;;;;;;7373580;19;20018;-59
2023/09/22 02:22:56;;;;;;;31.73;24.45;;;14.10;99.90;;;;;;7370169;19;20015;-57
2023/09/22 02:25:23;;;;;;;32.63;25.17;;;14.10;99.90;;;;;;7372891;19;20015;-60
2023/09/22 02:28:09;;;;;;;36.55;25.80;;;14.10;99.90;;;;;;7369764;19;20011;-60
2023/09/22 02:30:37;;;;;;;36.47;26.50;;;14.10;99.90;;;;;;7370854;19;20025;-66
2023/09/22 02:33:07;;;;;;;39.13;27.67;;;14.00;99.90;;;;;;7370777;19;20025;-69
2023/09/22 02:35:34;;;;;;;38.45;27.35;;;14.00;99.90;;;;;;7372784;19;20034;-68
2023/09/22 02:38:20;;;;;;;40.88;27.45;;;13.90;99.90;;;;;;7370820;19;20018;-68
2023/09/22 02:41:07;;;;;;;38.58;28.42;;;14.00;99.90;;;;;;7372357;19;20375;-68
2023/09/22 02:43:53;;;;;;;43.70;28.42;;;13.90;99.90;;;;;;7371992;19;20347;-59
2023/09/22 02:46:19;;;;;;;40.13;28.30;;;14.00;99.90;;;;;;7372094;19;20623;-60
2023/09/22 02:49:05;;;;;;;41.38;28.38;;;14.00;99.90;;;;;;7371633;19;20704;-59
2023/09/22 02:51:31;;;;;;;38.22;27.17;;;14.00;99.90;;;;;;7370327;19;20046;-58
2023/09/22 02:53:58;;;;;;;41.63;28.75;;;14.00;99.90;;;;;;7369494;19;20019;-59
2023/09/22 02:56:24;;;;;;;44.70;28.38;;;14.00;99.90;;;;;;7372213;19;20038;-68
2023/09/22 02:58:50;;;;;;;39.47;28.23;;;14.00;99.90;;;;;;7368889;19;20018;-68
2023/09/22 03:01:17;;;;;;;45.70;28.83;;;14.00;99.90;;;;;;7372914;19;20099;-67
2023/09/22 03:03:43;;;;;;;47.20;29.63;;;14.00;99.90;;;;;;7371845;19;20347;-67
2023/09/22 03:06:11;;;;;;;45.65;29.50;;;14.00;99.90;;;;;;7370539;19;20486;-68
2023/09/22 03:08:57;;;;;;;43.00;28.65;;;14.00;99.90;;;;;;7370903;19;20018;-66
2023/09/22 03:11:24;;;;;;;42.25;28.73;;;14.00;99.90;;;;;;7372371;19;20098;-67
2023/09/22 03:14:10;;;;;;;41.63;28.73;;;14.00;99.90;;;;;;7374154;19;20011;-58
2023/09/22 03:16:37;;;;;;;39.75;27.73;;;14.00;99.90;;;;;;7369985;19;20029;-58
2023/09/22 03:19:04;;;;;;;36.80;26.27;;;14.00;99.90;;;;;;7370477;19;20387;-58
2023/09/22 03:21:30;;;;;;;41.38;29.20;;;14.00;99.90;;;;;;7369612;19;20490;-58
2023/09/22 03:23:57;;;;;;;39.08;27.70;;;14.00;99.90;;;;;;7369857;19;20019;-58
2023/09/22 03:26:23;;;;;;;40.50;27.67;;;14.00;99.90;;;;;;7372804;19;20023;-58
2023/09/22 03:28:50;;;;;;;38.83;27.50;;;14.00;99.90;;;;;;7366826;19;20015;-58
2023/09/22 03:31:16;;;;;;;40.97;27.70;;;14.00;99.90;;;;;;7374150;19;20026;-58
2023/09/22 03:33:46;;;;;;;33.67;25.08;;;14.00;99.90;;;;;;7374925;19;20068;-67
2023/09/22 03:36:14;;;;;;;33.22;25.08;;;14.00;99.90;;;;;;7378500;19;20042;-67
2023/09/22 03:39:02;;;;;;;34.45;26.13;;;14.00;99.90;;;;;;7377564;19;20478;-58
2023/09/22 03:41:35;;;;;;;33.40;25.02;;;13.90;99.90;;;;;;7376482;19;20015;-58
2023/09/22 03:44:02;;;;;;;32.90;24.83;;;13.90;99.90;;;;;;7378202;19;20021;-58
2023/09/22 03:46:28;;;;;;;39.60;25.60;;;13.90;99.90;;;;;;7376858;19;20018;-58
2023/09/22 03:48:55;;;;;;;32.90;24.92;;;13.90;99.90;;;;;;7375090;19;20010;-58
2023/09/22 03:51:21;;;;;;;35.38;24.85;;;13.90;99.90;;;;;;7376988;19;20027;-58
2023/09/22 03:53:47;;;;;;;31.23;23.65;;;13.90;99.90;;;;;;7376514;19;20465;-58
2023/09/22 03:56:14;;;;;;;28.45;23.05;;;13.90;99.90;;;;;;7379021;19;20498;-58
2023/09/22 03:58:40;;;;;;;30.42;23.67;;;13.90;99.90;;;;;;7376679;19;20027;-68
2023/09/22 04:01:26;;;;;;;33.30;22.85;;;13.90;99.90;;;;;;7378498;19;20474;-59
2023/09/22 04:03:52;;;;;;;31.25;24.13;;;13.80;99.90;;;;;;7375476;19;20018;-57
2023/09/22 04:06:18;;;;;;;34.65;24.85;;;13.80;99.90;;;;;;7378034;19;20021;-58
2023/09/22 04:08:45;;;;;;;35.38;24.52;;;13.80;99.90;;;;;;7373809;19;20365;-58
2023/09/22 04:11:13;;;;;;;33.95;24.40;;;13.80;99.90;;;;;;7375380;19;20034;-58
2023/09/22 04:13:40;;;;;;;34.40;24.25;;;13.80;99.90;;;;;;7377215;19;20020;-67
2023/09/22 04:16:06;;;;;;;36.22;25.05;;;13.80;99.90;;;;;;7378128;19;20014;-68
2023/09/22 04:18:32;;;;;;;33.50;24.67;;;13.80;99.90;;;;;;7379782;19;20569;-68
2023/09/22 04:21:04;;;;;;;31.17;24.52;;;13.70;99.90;;;;;;7379280;19;20046;-68
2023/09/22 04:23:31;;;;;;;36.78;26.13;;;13.70;99.90;;;;;;7375842;19;20022;-68
2023/09/22 04:26:09;;;;;;;38.92;26.88;;;13.70;99.90;;;;;;7378690;19;20007;-58
2023/09/22 04:28:59;;;;;;;39.45;26.17;;;13.70;99.90;;;;;;7379044;19;20011;-58
2023/09/22 04:31:28;;;;;;;39.67;27.65;;;13.70;99.90;;;;;;7373437;19;20014;-59
2023/09/22 04:33:54;;;;;;;41.08;28.52;;;13.60;99.90;;;;;;7375490;19;20051;-58
2023/09/22 04:36:23;;;;;;;43.13;27.80;;;13.60;99.90;;;;;;7374641;19;20429;-70
2023/09/22 04:38:50;;;;;;;42.30;27.70;;;13.60;99.90;;;;;;7374400;19;20683;-58
2023/09/22 04:41:36;;;;;;;45.50;28.85;;;13.60;99.90;;;;;;7375185;19;20015;-58
2023/09/22 04:44:23;;;;;;;46.63;29.95;;;13.60;99.90;;;;;;7375649;19;20022;-58
2023/09/22 04:46:49;;;;;;;50.90;31.25;;;13.50;99.90;;;;;;7375517;19;20055;-58
2023/09/22 04:49:36;;;;;;;53.53;32.63;;;13.40;99.90;;;;;;7377412;19;20022;-58
2023/09/22 04:52:22;;;;;;;53.35;32.95;;;13.30;99.90;;;;;;7373586;19;20010;-57
2023/09/22 04:55:09;;;;;;;55.92;34.58;;;13.20;99.90;;;;;;7376336;19;20025;-58
2023/09/22 04:57:35;;;;;;;52.53;32.45;;;13.20;99.90;;;;;;7375733;19;20011;-58
2023/09/22 05:00:09;;;;;;;61.85;34.88;;;13.10;99.90;;;;;;7374157;19;20442;-68
2023/09/22 05:02:56;;;;;;;61.60;34.30;;;13.00;99.90;;;;;;7375601;19;20019;-58
2023/09/22 05:05:22;;;;;;;60.80;34.83;;;13.00;99.90;;;;;;7374417;19;20014;-61
2023/09/22 05:07:50;;;;;;;62.25;35.28;;;12.90;99.90;;;;;;7378135;19;20577;-63
2023/09/22 05:10:37;;;;;;;64.93;35.65;;;12.90;99.90;;;;;;7375251;19;20014;-67
2023/09/22 05:13:04;;;;;;;71.40;38.15;;;12.80;99.90;;;;;;7374451;19;20509;-58
2023/09/22 05:15:31;;;;;;;64.53;36.70;;;12.80;99.90;;;;;;7375845;19;20554;-67
2023/09/22 05:17:57;;;;;;;69.07;40.00;;;12.80;99.90;;;;;;7373510;19;20011;-60
2023/09/22 05:20:24;;;;;;;62.28;36.55;;;12.80;99.90;;;;;;7374495;19;20359;-59
2023/09/22 05:23:10;;;;;;;72.35;39.88;;;12.80;99.90;;;;;;7374800;19;20015;-58
2023/09/22 05:25:56;;;;;;;68.22;38.58;;;12.80;99.90;;;;;;7371208;19;20042;-68
2023/09/22 05:28:43;;;;;;;69.70;39.15;;;12.80;99.90;;;;;;7372475;19;20379;-68
2023/09/22 05:31:09;;;;;;;66.68;38.55;;;12.80;99.90;;;;;;7374934;19;20019;-67
2023/09/22 05:33:35;;;;;;;68.55;38.13;;;12.80;99.90;;;;;;7376061;19;20021;-68
2023/09/22 05:36:02;;;;;;;65.90;37.35;;;12.80;99.90;;;;;;7374064;19;20374;-68
2023/09/22 05:38:48;;;;;;;62.83;38.85;;;12.80;99.90;;;;;;7375069;19;20014;-69
2023/09/22 05:41:15;;;;;;;63.38;37.05;;;12.80;99.90;;;;;;7376849;19;20015;-68
2023/09/22 05:43:41;;;;;;;65.78;38.03;;;12.80;99.90;;;;;;7376492;19;20044;-68
2023/09/22 05:46:09;;;;;;;62.70;37.67;;;12.80;99.90;;;;;;7373067;19;20422;-68
2023/09/22 05:48:36;;;;;;;62.10;36.92;;;12.90;99.90;;;;;;7377236;19;20494;-68
2023/09/22 05:51:03;;;;;;;59.85;34.80;;;12.90;99.90;;;;;;7373954;19;20026;-68
2023/09/22 05:53:52;;;;;;;53.15;32.80;;;12.90;99.90;;;;;;7372384;19;20527;-68
2023/09/22 05:56:18;;;;;;;56.88;34.92;;;12.90;99.90;;;;;;7375727;19;20015;-67
2023/09/22 05:58:46;;;;;;;57.22;33.05;;;12.90;99.90;;;;;;7375043;19;20498;-67
2023/09/22 06:01:15;;;;;;;54.45;31.02;;;12.90;99.90;;;;;;7375184;19;20489;-67
2023/09/22 06:03:42;;;;;;;50.42;31.45;;;12.90;99.90;;;;;;7370898;19;20014;-68
2023/09/22 06:06:09;;;;;;;50.72;30.02;;;12.90;99.90;;;;;;7375162;19;20021;-68
2023/09/22 06:08:36;;;;;;;43.92;29.35;;;13.00;99.90;;;;;;7373379;19;20044;-66
2023/09/22 06:11:04;;;;;;;50.38;29.33;;;13.00;99.90;;;;;;7372104;19;20014;-66
2023/09/22 06:13:30;;;;;;;49.17;28.08;;;13.00;99.90;;;;;;7370837;19;20015;-66
2023/09/22 06:15:56;;;;;;;48.72;28.52;;;13.00;99.90;;;;;;7372836;19;20018;-65
2023/09/22 06:18:22;;;;;;;45.67;28.35;;;13.10;99.90;;;;;;7372395;19;20474;-58
2023/09/22 06:20:49;;;;;;;44.83;27.35;;;13.10;99.90;;;;;;7370162;19;20021;-59
2023/09/22 06:23:17;;;;;;;40.70;25.38;;;13.10;99.90;;;;;;7371254;19;20019;-58
2023/09/22 06:25:44;;;;;;;39.85;26.50;;;13.10;99.90;;;;;;7374064;19;20482;-58
2023/09/22 06:28:30;;;;;;;43.75;27.67;;;13.20;99.90;;;;;;7372206;19;20423;-58
2023/09/22 06:31:03;;;;;;;44.25;26.05;;;13.20;99.90;;;;;;7369389;19;20435;-58
2023/09/22 06:33:32;;;;;;;36.53;23.90;;;13.30;99.90;;;;;;7371402;19;20122;-59
2023/09/22 06:36:04;;;;;;;41.95;26.77;;;13.30;99.90;;;;;;7373033;19;20014;-60
2023/09/22 06:38:34;;;;;;;34.60;26.00;;;13.50;99.90;;;;;;7373167;19;20059;-68
2023/09/22 06:41:00;;;;;;;37.65;25.67;;;13.60;99.90;;;;;;7366421;19;21118;-58
2023/09/22 06:43:47;;;;;;;36.67;24.70;;;13.50;99.90;;;;;;7371593;19;20019;-58
2023/09/22 06:46:15;;;;;;;35.15;24.08;;;13.50;99.90;;;;;;7374188;19;20021;-58
2023/09/22 06:48:42;;;;;;;32.90;23.05;;;13.50;99.90;;;;;;7375023;19;20014;-57
2023/09/22 06:51:30;;;;;;;29.60;23.58;;;13.60;99.90;;;;;;7370173;19;20347;-57
2023/09/22 06:53:56;;;;;;;31.80;22.50;;;13.60;99.90;;;;;;7371401;19;20025;-58
2023/09/22 06:56:23;;;;;;;28.52;22.88;;;13.60;99.90;;;;;;7371624;19;20025;-58
2023/09/22 06:58:49;;;;;;;30.55;21.98;;;13.70;99.90;;;;;;7372201;19;20014;-58
2023/09/22 07:01:19;;;;;;;27.77;22.17;;;13.80;99.90;;;;;;7371618;19;20600;-58
2023/09/22 07:03:46;;;;;;;25.27;20.55;;;13.80;99.90;;;;;;7371281;19;20042;-58
2023/09/22 07:06:16;;;;;;;24.52;19.83;;;13.90;99.90;;;;;;7378254;19;20350;-57
2023/09/22 07:08:45;;;;;;;26.45;20.00;;;13.90;99.90;;;;;;7377775;19;20014;-57
2023/09/22 07:11:11;;;;;;;24.60;19.17;;;13.90;99.90;;;;;;7379423;19;20521;-57
2023/09/22 07:13:40;;;;;;;27.15;20.05;;;14.00;99.90;;;;;;7380076;19;20013;-57
2023/09/22 07:16:07;;;;;;;26.85;19.60;;;14.10;99.90;;;;;;7381260;19;20114;-59
2023/09/22 07:18:53;;;;;;;22.92;18.73;;;14.10;99.90;;;;;;7377612;19;20023;-57
2023/09/22 07:21:39;;;;;;;24.27;18.48;;;14.00;99.90;;;;;;7376482;19;20022;-58
2023/09/22 07:24:25;;;;;;;25.85;18.15;;;14.00;99.90;;;;;;7378183;19;20037;-57
2023/09/22 07:26:52;;;;;;;22.33;17.52;;;14.00;99.90;;;;;;7377287;19;20029;-57
2023/09/22 07:29:38;;;;;;;21.02;17.13;;;14.00;99.90;;;;;;7377369;19;20021;-58
2023/09/22 07:32:24;;;;;;;24.33;17.48;;;14.00;99.90;;;;;;7376191;19;20015;-57
2023/09/22 07:34:51;;;;;;;21.77;16.38;;;14.00;99.90;;;;;;7377495;19;20604;-57
2023/09/22 07:37:17;;;;;;;20.48;15.85;;;14.00;99.90;;;;;;7379975;19;20057;-57
2023/09/22 07:39:43;;;;;;;23.90;16.50;;;14.00;99.90;;;;;;7377711;19;20378;-58
2023/09/22 07:42:31;;;;;;;20.30;15.43;;;14.10;99.90;;;;;;7376374;19;20014;-58
2023/09/22 07:45:17;;;;;;;24.15;17.13;;;14.10;99.90;;;;;;7378434;19;20365;-57
2023/09/22 07:48:05;;;;;;;17.63;15.50;;;14.20;99.90;;;;;;7378976;19;20029;-57
2023/09/22 07:50:34;;;;;;;22.42;16.00;;;14.10;99.90;;;;;;7379644;19;20018;-57
2023/09/22 07:53:02;;;;;;;20.95;15.80;;;14.10;99.90;;;;;;7374906;19;20026;-57
2023/09/22 07:55:29;;;;;;;22.55;16.08;;;14.20;99.90;;;;;;7381019;19;20499;-57
2023/09/22 07:57:55;;;;;;;17.52;15.43;;;14.20;99.90;;;;;;7381899;19;20101;-57
2023/09/22 08:00:23;;;;;;;20.67;14.88;;;14.20;99.90;;;;;;7381596;19;20018;-57
2023/09/22 08:02:50;;;;;;;20.58;15.23;;;14.30;99.90;;;;;;7379255;19;20014;-58
2023/09/22 08:05:16;;;;;;;20.35;15.23;;;14.30;99.90;;;;;;7380398;19;20014;-57
2023/09/22 08:08:04;;;;;;;22.00;15.05;;;14.40;99.90;;;;;;7378742;19;20011;-58
2023/09/22 08:10:31;;;;;;;19.48;14.40;;;14.50;99.90;;;;;;7380884;19;20026;-58
2023/09/22 08:12:57;;;;;;;16.20;12.45;;;14.60;99.90;;;;;;7372604;19;20478;-67
2023/09/22 08:15:24;;;;;;;20.17;13.55;;;14.70;99.90;;;;;;7380205;19;20037;-67
2023/09/22 08:17:50;;;;;;;15.43;11.60;;;14.90;99.90;;;;;;7375275;19;20014;-58
2023/09/22 08:20:17;;;;;;;15.32;11.50;;;15.00;99.90;;;;;;7379680;19;20015;-68
2023/09/22 08:22:44;;;;;;;13.70;10.48;;;15.10;99.90;;;;;;7373263;19;20015;-68
2023/09/22 08:25:10;;;;;;;13.48;10.90;;;15.10;99.90;;;;;;7379682;19;20488;-67
2023/09/22 08:27:37;;;;;;;11.80;9.45;;;15.10;99.90;;;;;;7375880;19;20509;-68
2023/09/22 08:30:11;;;;;;;13.82;10.40;;;15.20;99.90;;;;;;7377727;19;20042;-57
2023/09/22 08:32:42;;;;;;;12.98;9.48;;;15.40;99.90;;;;;;7374377;19;20014;-58
2023/09/22 08:35:11;;;;;;;11.60;8.15;;;15.80;99.90;;;;;;7377926;19;20014;-57
2023/09/22 08:37:40;;;;;;;9.70;7.50;;;16.20;99.90;;;;;;7377304;19;20029;-57
2023/09/22 08:40:11;;;;;;;11.15;7.25;;;16.40;99.90;;;;;;7375228;19;20561;-58
2023/09/22 08:42:38;;;;;;;7.90;5.57;;;16.70;99.90;;;;;;7376690;19;20010;-57
2023/09/22 08:45:12;;;;;;;9.02;5.43;;;16.50;99.90;;;;;;7377118;19;20059;-57
2023/09/22 08:47:40;;;;;;;9.32;4.70;;;16.50;99.90;;;;;;7378041;19;20583;-58
2023/09/22 08:50:15;;;;;;;6.22;3.88;;;16.50;99.90;;;;;;7377048;19;20035;-58
2023/09/22 08:52:49;;;;;;;7.38;4.55;;;16.20;99.90;;;;;;7374349;19;20011;-56
2023/09/22 08:55:15;;;;;;;8.13;3.92;;;16.40;99.90;;;;;;7375321;19;20014;-57
2023/09/22 08:57:44;;;;;;;5.93;3.35;;;16.40;99.90;;;;;;7376333;19;20010;-57
2023/09/22 09:00:19;;;;;;;5.30;3.20;;;16.50;99.90;;;;;;7376234;19;20051;-57
2023/09/22 09:02:50;;;;;;;5.63;3.00;;;16.80;99.90;;;;;;7374003;19;20094;-58
2023/09/22 09:05:19;;;;;;;5.22;2.67;;;17.50;99.90;;;;;;7374304;19;20421;-58
2023/09/22 09:07:46;;;;;;;7.57;2.55;;;18.30;99.90;;;;;;7374892;19;20372;-58
2023/09/22 09:10:24;;;;;;;5.07;2.00;;;18.80;99.90;;;;;;7377908;19;20037;-57
2023/09/22 09:13:16;;;;;;;4.13;1.95;;;18.90;99.90;;;;;;7371920;19;20046;-58
2023/09/22 09:15:47;;;;;;;;;;;18.90;99.90;;;;;;7378934;19;20019;-57
2023/09/22 09:18:16;;;;;;;3.65;1.67;;;18.20;99.90;;;;;;7376135;19;19926;-57
2023/09/22 09:20:44;;;;;;;3.75;1.80;;;17.90;99.90;;;;;;7375423;19;20425;-58
2023/09/22 09:23:21;;;;;;;4.00;1.50;;;18.20;99.90;;;;;;7372926;19;20492;-58
2023/09/22 09:25:55;;;;;;;4.63;1.48;;;18.40;99.90;;;;;;7374333;19;20074;-58
2023/09/22 09:28:23;;;;;;;4.70;1.50;;;19.00;99.90;;;;;;7375041;19;20370;-59
2023/09/22 09:30:57;;;;;;;3.00;1.45;;;19.50;99.90;;;;;;7372778;19;20561;-58
2023/09/22 09:33:28;;;;;;;3.28;1.50;;;20.30;99.90;;;;;;7364054;19;20557;-58
2023/09/22 09:35:55;;;;;;;4.55;2.40;;;20.60;99.90;;;;;;7365689;19;20018;-61
2023/09/22 09:38:27;;;;;;;10.07;5.78;;;20.80;99.90;;;;;;7368663;19;20041;-67
2023/09/22 09:40:55;;;;;;;6.32;4.97;;;20.90;99.90;;;;;;7366429;19;20145;-67
2023/09/22 09:43:22;;;;;;;11.90;9.50;;;21.40;99.90;;;;;;7370159;19;20022;-62
2023/09/22 09:45:50;;;;;;;70.88;64.10;;;21.30;99.90;;;;;;7371626;19;20042;-60
2023/09/22 09:48:18;;;;;;;3.03;1.58;;;21.50;99.90;;;;;;7373750;19;20367;-61
2023/09/22 09:50:58;;;;;;;4.97;1.80;;;21.70;99.90;;;;;;7370357;19;20025;-60
2023/09/22 09:53:37;;;;;;;4.57;2.88;;;20.70;99.90;;;;;;7371478;19;20029;-61
2023/09/22 09:56:05;;;;;;;10.57;9.43;;;21.30;99.90;;;;;;7370791;19;20018;-61
2023/09/22 09:58:35;;;;;;;8.65;7.10;;;21.00;99.90;;;;;;7369617;19;20930;-61
2023/09/22 10:01:06;;;;;;;7.55;3.42;;;20.50;99.90;;;;;;7362514;19;20018;-61
2023/09/22 10:03:53;;;;;;;28.20;25.27;;;20.80;99.90;;;;;;7362015;19;20041;-62
2023/09/22 10:06:21;;;;;;;8.32;5.95;;;20.80;99.90;;;;;;7364877;19;20841;-62
2023/09/22 10:08:47;;;;;;;4.97;2.85;;;20.20;99.90;;;;;;7367913;19;20018;-62
2023/09/22 10:11:34;;;;;;;4.32;2.42;;;20.40;99.90;;;;;;7363380;19;20018;-62
2023/09/22 10:14:04;;;;;;;5.30;1.77;;;20.30;99.90;;;;;;7369677;19;20025;-62
2023/09/22 10:16:30;;;;;;;7.63;3.08;;;20.60;99.90;;;;;;7370802;19;20377;-62
2023/09/22 10:18:59;;;;;;;3.30;1.10;;;21.50;99.90;;;;;;7373543;19;20458;-62
2023/09/22 10:21:28;;;;;;;3.78;2.40;;;21.80;99.90;;;;;;7369465;19;20463;-62
2023/09/22 10:24:38;;;;;;;4.43;1.52;;;22.10;99.90;;;;;;7371541;19;20031;-62
2023/09/22 10:27:08;;;;;;;4.65;1.85;;;22.80;99.90;;;;;;7367484;19;20589;-62
2023/09/22 10:29:37;;;;;;;2.72;0.95;;;21.60;99.90;;;;;;7368408;19;20022;-62
2023/09/22 10:32:18;;;;;;;2.33;1.03;;;20.70;99.90;;;;;;7366094;19;20127;-61
2023/09/22 10:34:55;;;;;;;116.82;104.38;;;19.40;99.90;;;;;;7363955;19;20019;-62
2023/09/22 10:37:23;;;;;;;6.00;2.17;;;19.00;99.90;;;;;;7369907;19;20022;-58
2023/09/22 10:40:19;;;;;;;5.05;1.45;;;18.70;99.90;;;;;;7368183;19;20067;-57
2023/09/22 10:42:48;;;;;;;2.03;1.00;;;18.30;99.90;;;;;;7367748;19;20036;-59
2023/09/22 10:45:17;;;;;;;5.15;1.63;;;18.40;99.90;;;;;;7373426;19;20041;-59
2023/09/22 10:47:57;;;;;;;4.97;1.45;;;18.30;99.90;;;;;;7374025;19;20018;-59
2023/09/22 10:50:31;;;;;;;3.92;1.27;;;18.30;99.90;;;;;;7378348;19;20010;-59
2023/09/22 10:53:18;;;;;;;4.80;1.30;;;18.00;99.90;;;;;;7372416;19;20010;-59
2023/09/22 10:55:45;;;;;;;2.83;1.30;;;18.60;99.90;;;;;;7371759;19;20361;-59
2023/09/22 10:58:18;;;;;;;4.63;1.75;;;18.50;99.90;;;;;;7375886;19;20019;-59
2023/09/22 11:01:08;;;;;;;4.57;1.30;;;19.20;99.90;;;;;;7378240;19;20014;-59
2023/09/22 11:03:35;;;;;;;2.13;1.00;;;20.20;99.90;;;;;;7377525;19;20018;-59
2023/09/22 11:06:06;;;;;;;2.70;1.02;;;21.20;99.90;;;;;;7374478;19;20094;-59
2023/09/22 11:08:36;;;;;;;3.15;1.45;;;21.60;99.90;;;;;;7378962;19;20035;-58
2023/09/22 11:11:04;;;;;;;2.42;1.05;;;21.80;99.90;;;;;;7373253;19;20049;-58
2023/09/22 11:13:30;;;;;;;1.92;0.80;;;22.60;99.90;;;;;;7370356;19;20033;-57
2023/09/22 11:15:57;;;;;;;4.60;1.20;;;22.70;99.90;;;;;;7365770;19;21020;-58
2023/09/22 11:18:28;;;;;;;1.77;0.93;;;22.50;99.90;;;;;;7372682;19;20018;-57
2023/09/22 11:20:58;;;;;;;3.13;1.05;;;21.70;99.90;;;;;;7372294;19;20361;-58
2023/09/22 11:23:28;;;;;;;1.95;0.85;;;20.90;99.90;;;;;;7368519;19;20561;-59
2023/09/22 11:26:09;;;;;;;3.97;1.10;;;20.50;99.90;;;;;;7369194;19;20018;-59
2023/09/22 11:28:38;;;;;;;;;;;19.70;99.90;;;;;;7374272;19;20024;-58
2023/09/22 11:31:15;;;;;;;1.75;1.10;;;19.10;99.90;;;;;;7370518;19;20407;-59
2023/09/22 11:33:43;;;;;;;3.28;1.25;;;19.20;99.90;;;;;;7374109;19;20035;-59
2023/09/22 11:36:10;;;;;;;3.55;1.20;;;19.70;99.90;;;;;;7371372;19;20804;-59
2023/09/22 11:38:40;;;;;;;3.17;1.13;;;20.40;99.90;;;;;;7374072;19;20497;-59
2023/09/22 11:41:16;;;;;;;1.95;1.00;;;20.40;99.90;;;;;;7370360;19;20022;-60
2023/09/22 11:43:48;;;;;;;3.70;1.20;;;20.90;99.90;;;;;;7367840;19;20019;-59
2023/09/22 11:46:15;;;;;;;;;;;20.70;99.90;;;;;;7371866;19;20429;-58
2023/09/22 11:48:57;;;;;;;3.10;1.40;;;20.20;99.90;;;;;;7371499;19;19926;-58
2023/09/22 11:51:50;;;;;;;2.88;1.85;;;20.20;99.90;;;;;;7371487;19;20015;-57
2023/09/22 11:54:29;;;;;;;2.47;1.27;;;20.20;99.90;;;;;;7373405;19;20093;-58
2023/09/22 11:56:58;;;;;;;2.97;1.30;;;19.90;99.90;;;;;;7372486;19;20022;-59
2023/09/22 11:59:31;;;;;;;3.97;1.20;;;19.60;99.90;;;;;;7370346;19;20541;-58
2023/09/22 12:01:58;;;;;;;3.13;1.35;;;19.40;99.90;;;;;;7371511;19;20023;-58
2023/09/22 12:04:24;;;;;;;2.03;1.30;;;19.00;99.90;;;;;;7374135;19;20018;-61
2023/09/22 12:06:51;;;;;;;22.83;18.60;;;18.90;99.90;;;;;;7371982;19;20485;-61
2023/09/22 12:09:18;;;;;;;9.38;7.63;;;19.10;99.90;;;;;;7372401;19;20042;-68
2023/09/22 12:11:45;;;;;;;24.15;21.60;;;19.20;99.90;;;;;;7370009;19;20390;-60
2023/09/22 12:14:12;;;;;;;47.78;42.97;;;19.50;99.90;;;;;;7371216;19;20037;-60
2023/09/22 12:16:39;;;;;;;8.73;7.78;;;19.50;99.90;;;;;;7372058;19;20026;-59
2023/09/22 12:19:06;;;;;;;11.80;9.13;;;19.70;99.90;;;;;;7368180;19;20021;-60
2023/09/22 12:21:32;;;;;;;6.63;3.40;;;19.60;99.90;;;;;;7370078;19;20517;-59
2023/09/22 12:24:00;;;;;;;3.30;2.15;;;19.30;99.90;;;;;;7368593;19;20482;-60
2023/09/22 12:26:26;;;;;;;3.97;2.30;;;19.10;99.90;;;;;;7371603;19;20081;-59
2023/09/22 12:28:52;;;;;;;3.88;2.38;;;18.90;99.90;;;;;;7372758;19;20780;-58
2023/09/22 12:31:19;;;;;;;5.68;1.65;;;18.80;99.90;;;;;;7371796;19;20023;-58
2023/09/22 12:33:47;;;;;;;2.85;1.38;;;18.80;99.90;;;;;;7370131;19;20018;-59
2023/09/22 12:36:15;;;;;;;3.67;1.27;;;18.60;99.90;;;;;;7373874;19;20019;-60
2023/09/22 12:38:41;;;;;;;7.35;1.80;;;18.50;99.90;;;;;;7369841;19;20022;-66
2023/09/22 12:41:08;;;;;;;2.95;1.60;;;18.40;99.90;;;;;;7369647;19;20022;-63
2023/09/22 12:43:34;;;;;;;104.63;93.63;;;18.30;99.90;;;;;;7364478;19;20481;-59
2023/09/22 12:46:00;;;;;;;16.70;13.00;;;18.30;99.90;;;;;;7369256;19;20060;-61
2023/09/22 12:48:26;;;;;;;13.93;11.30;;;18.10;99.90;;;;;;7374894;19;20018;-60
2023/09/22 12:50:56;;;;;;;8.68;6.57;;;18.00;99.90;;;;;;7371519;19;20010;-60
2023/09/22 12:53:26;;;;;;;3.90;2.92;;;18.00;99.90;;;;;;7373203;19;20051;-61
2023/09/22 12:55:57;;;;;;;5.38;3.05;;;18.00;99.90;;;;;;7370069;19;20014;-62
2023/09/22 12:58:26;;;;;;;3.97;1.80;;;18.10;99.90;;;;;;7369946;19;20022;-61